Murrurundi, Australia
Current Conditions -  °F | °C
As of 3:22 PM on Tuesday 23 Dec 2014 (Local Time) from YSTW Reporting Station
Broken Clouds Broken Clouds  
Wind Chill: 75°   Ceiling: 4100
Heat Index: 75°   Visibility: 6mi
Dew Point: 64°   Wind: 2mph
Humidity: 69%   Direction: 360°N
Pressure: 29.97"   Gusts: NA
Location:  31.76°S, 150.83°E
Report Text: YSTW 230422Z AUTO 36002KT 9999 // SCT024 BKN041 BKN049 24/18 Q1015
Loading
Personal Weather Stations






























Interactive Weather Map New forecast layout! Learn more

10-Day Weather Forecast

Advertisements
Track Severe Weather on mobile